createdAt,value
2023-04-20T00:00:31.504Z,45.48
2023-04-20T00:02:59.595Z,45.99
2023-04-20T00:05:27.515Z,47.97
2023-04-20T00:07:55.825Z,49.30
2023-04-20T00:10:24.940Z,49.54
2023-04-20T00:12:52.743Z,49.84
2023-04-20T00:15:20.542Z,50.19
2023-04-20T00:17:48.676Z,51.41
2023-04-20T00:20:16.508Z,51.08
2023-04-20T00:22:44.288Z,52.74
2023-04-20T00:25:12.026Z,53.82
2023-04-20T00:27:41.133Z,53.25
2023-04-20T00:30:11.032Z,53.31
2023-04-20T00:32:38.819Z,53.34
2023-04-20T00:35:07.445Z,54.24
2023-04-20T00:37:35.106Z,55.85
2023-04-20T00:40:02.793Z,55.27
2023-04-20T00:42:30.608Z,55.58
2023-04-20T00:44:59.673Z,57.30
2023-04-20T00:47:27.431Z,56.59
2023-04-20T00:49:55.812Z,56.19
2023-04-20T00:52:23.619Z,56.21
2023-04-20T00:54:51.418Z,56.80
2023-04-20T00:57:24.137Z,57.46
2023-04-20T00:59:52.338Z,55.74
2023-04-20T01:02:21.691Z,56.58
2023-04-20T01:04:49.453Z,56.49
2023-04-20T01:07:17.356Z,56.68
2023-04-20T01:09:45.004Z,55.16
2023-04-20T01:12:12.732Z,56.79
2023-04-20T01:14:40.595Z,55.66
2023-04-20T01:17:08.458Z,56.65
2023-04-20T01:19:37.504Z,55.94
2023-04-20T01:22:06.104Z,55.97
2023-04-20T01:24:35.270Z,55.42
2023-04-20T01:27:02.963Z,55.63
2023-04-20T01:29:30.931Z,55.34
2023-04-20T01:31:58.643Z,54.27
2023-04-20T01:34:26.475Z,54.14
2023-04-20T01:36:54.231Z,54.16
2023-04-20T01:39:21.988Z,54.29
2023-04-20T01:41:51.508Z,55.16
2023-04-20T01:44:19.294Z,55.43
2023-04-20T01:46:46.973Z,54.69
2023-04-20T01:49:14.775Z,55.67
2023-04-20T01:51:42.635Z,55.30
2023-04-20T01:54:10.409Z,55.30
2023-04-20T01:56:38.153Z,54.46
2023-04-20T01:59:07.205Z,54.15
2023-04-20T02:01:35.226Z,53.96
2023-04-20T02:04:03.038Z,53.72
2023-04-20T02:06:31.315Z,54.66
2023-04-20T02:08:59.175Z,53.48
2023-04-20T02:11:26.939Z,53.33
2023-04-20T02:13:54.698Z,52.55
2023-04-20T02:16:23.902Z,52.44
2023-04-20T02:18:51.801Z,52.23
2023-04-20T02:21:20.064Z,52.53
2023-04-20T02:23:47.787Z,52.10
2023-04-20T02:26:16.808Z,51.95
2023-04-20T02:28:44.508Z,52.09
2023-04-20T02:31:12.254Z,51.53
2023-04-20T02:33:41.537Z,51.57
2023-04-20T02:36:09.931Z,50.64
2023-04-20T02:38:38.075Z,50.52
2023-04-20T02:41:06.255Z,51.35
2023-04-20T02:43:36.218Z,51.50
2023-04-20T02:46:04.073Z,49.94
2023-04-20T02:48:31.807Z,50.33
2023-04-20T02:51:01.233Z,50.25
2023-04-20T02:53:28.978Z,51.24
2023-04-20T02:55:56.693Z,51.65
2023-04-20T02:58:24.891Z,50.90
2023-04-20T03:00:53.106Z,51.04
2023-04-20T03:03:21.720Z,51.40
2023-04-20T03:05:49.976Z,52.17
2023-04-20T03:08:19.084Z,53.21
2023-04-20T03:10:46.839Z,53.64
2023-04-20T03:13:14.522Z,53.05
2023-04-20T03:15:42.357Z,54.17
2023-04-20T03:18:10.106Z,53.58
2023-04-20T03:20:37.879Z,53.11
2023-04-20T03:23:05.646Z,52.21
2023-04-20T03:25:34.773Z,53.10
2023-04-20T03:28:02.500Z,54.19
2023-04-20T03:30:30.453Z,54.63
2023-04-20T03:32:58.226Z,54.87
2023-04-20T03:35:25.977Z,54.76
2023-04-20T03:37:53.681Z,54.54
2023-04-20T03:40:21.616Z,54.17
2023-04-20T03:42:50.735Z,54.51
2023-04-20T03:45:18.448Z,55.23
2023-04-20T03:47:46.221Z,56.90
2023-04-20T03:50:13.911Z,56.40
2023-04-20T03:52:41.799Z,56.10
2023-04-20T03:55:10.601Z,57.19
2023-04-20T03:57:38.841Z,57.40
2023-04-20T04:00:10.792Z,58.15
2023-04-20T04:02:38.610Z,57.53
2023-04-20T04:05:07.313Z,57.36
2023-04-20T04:07:35.100Z,57.56
2023-04-20T04:10:04.969Z,57.54
2023-04-20T04:12:32.824Z,58.18
2023-04-20T04:15:00.566Z,60.43
2023-04-20T04:17:29.627Z,60.16
2023-04-20T04:19:57.482Z,60.21
2023-04-20T04:22:25.417Z,60.40
2023-04-20T04:24:54.434Z,62.03
2023-04-20T04:27:22.433Z,63.67
2023-04-20T04:29:50.189Z,63.68
2023-04-20T04:32:18.174Z,63.57
2023-04-20T04:34:48.292Z,61.31
2023-04-20T04:37:15.982Z,63.24
2023-04-20T04:39:43.675Z,63.63
2023-04-20T04:42:11.456Z,63.90
2023-04-20T04:44:40.082Z,64.05
2023-04-20T04:47:09.614Z,64.13
2023-04-20T04:49:37.369Z,64.17
2023-04-20T04:52:06.589Z,64.94
2023-04-20T04:54:34.308Z,65.25
2023-04-20T04:57:02.088Z,64.23
2023-04-20T04:59:29.825Z,65.07
2023-04-20T05:01:57.643Z,66.39
2023-04-20T05:04:25.697Z,67.78
2023-04-20T05:06:53.493Z,67.26
2023-04-20T05:09:22.533Z,68.18
2023-04-20T05:11:50.315Z,67.60
2023-04-20T05:14:18.111Z,66.68
2023-04-20T05:16:45.897Z,67.99
2023-04-20T05:19:13.655Z,65.54
2023-04-20T05:21:41.495Z,65.96
2023-04-20T05:24:09.398Z,67.29
2023-04-20T05:26:38.551Z,67.31
2023-04-20T05:29:06.294Z,68.17
2023-04-20T05:31:34.258Z,67.88
2023-04-20T05:34:02.920Z,67.42
2023-04-20T05:36:30.957Z,69.32
2023-04-20T05:38:58.709Z,68.33
2023-04-20T05:41:27.728Z,69.78
2023-04-20T05:43:57.059Z,70.31
2023-04-20T05:46:24.805Z,71.07
2023-04-20T05:48:52.464Z,73.20
2023-04-20T05:51:20.417Z,73.95
2023-04-20T05:53:48.151Z,75.38
2023-04-20T05:56:15.932Z,76.32
2023-04-20T05:58:44.216Z,76.18
2023-04-20T06:01:13.235Z,76.89
2023-04-20T06:03:41.163Z,78.04
2023-04-20T06:06:09.192Z,79.52
2023-04-20T06:08:36.931Z,80.35
2023-04-20T06:11:04.734Z,81.26
2023-04-20T06:13:32.415Z,83.75
2023-04-20T06:16:00.207Z,83.94
2023-04-20T06:18:29.361Z,85.91
2023-04-20T06:20:57.074Z,82.40
2023-04-20T06:23:24.826Z,85.12
2023-04-20T06:25:52.600Z,84.41
2023-04-20T06:28:20.366Z,88.44
2023-04-20T06:30:48.044Z,88.30
2023-04-20T06:33:17.337Z,90.27
2023-04-20T06:35:46.475Z,93.10
2023-04-20T06:38:14.227Z,93.05
2023-04-20T06:40:41.919Z,95.25
2023-04-20T06:43:09.655Z,94.23
2023-04-20T06:45:37.296Z,96.26
2023-04-20T06:48:05.291Z,94.47
2023-04-20T06:50:33.069Z,95.01
2023-04-20T06:53:03.964Z,91.64
2023-04-20T06:55:31.989Z,91.16
2023-04-20T06:57:59.646Z,92.21
2023-04-20T07:00:28.354Z,93.19
2023-04-20T07:02:56.193Z,90.74
2023-04-20T07:05:24.520Z,89.38
2023-04-20T07:07:52.290Z,85.41
2023-04-20T07:10:21.716Z,89.00
2023-04-20T07:12:49.496Z,89.42
2023-04-20T07:15:17.221Z,91.62
2023-04-20T07:17:45.010Z,93.68
2023-04-20T07:20:13.143Z,92.98
2023-04-20T07:22:41.316Z,91.32
2023-04-20T07:25:10.543Z,88.01
2023-04-20T07:27:41.068Z,89.28
2023-04-20T07:30:10.726Z,85.67
2023-04-20T07:32:39.127Z,83.53
2023-04-20T07:35:07.746Z,83.52
2023-04-20T07:37:35.993Z,88.23
2023-04-20T07:40:06.118Z,90.16
2023-04-20T07:42:34.371Z,87.54
2023-04-20T07:45:04.196Z,85.15
2023-04-20T07:47:32.062Z,87.74
2023-04-20T07:49:59.742Z,87.32
2023-04-20T07:52:27.543Z,88.82
2023-04-20T07:54:57.873Z,86.67
2023-04-20T07:57:25.593Z,87.49
2023-04-20T07:59:53.343Z,87.83
2023-04-20T08:02:22.687Z,84.91
2023-04-20T08:04:50.783Z,85.88
2023-04-20T08:07:18.776Z,88.22
2023-04-20T08:09:46.555Z,86.02
2023-04-20T08:12:14.274Z,83.29
2023-04-20T08:14:42.357Z,82.65
2023-04-20T08:17:10.057Z,82.93
2023-04-20T08:19:39.999Z,81.41
2023-04-20T08:22:09.354Z,83.86
2023-04-20T08:24:37.022Z,84.40
2023-04-20T08:27:04.760Z,82.03
2023-04-20T08:29:32.449Z,78.83
2023-04-20T08:32:00.210Z,76.85
2023-04-20T08:34:27.983Z,76.41
2023-04-20T08:36:57.112Z,74.33
2023-04-20T08:39:24.894Z,75.35
2023-04-20T08:41:53.968Z,75.84
2023-04-20T08:44:21.981Z,74.87
2023-04-20T08:46:50.395Z,76.40
2023-04-20T08:49:19.210Z,78.61
2023-04-20T08:51:47.684Z,77.98
2023-04-20T08:54:17.380Z,75.97
2023-04-20T08:56:46.557Z,73.53
2023-04-20T08:59:15.018Z,74.26
2023-04-20T09:01:43.322Z,72.62
2023-04-20T09:04:19.159Z,69.63
2023-04-20T09:06:47.788Z,68.68
2023-04-20T09:09:17.026Z,69.32
2023-04-20T09:11:45.015Z,71.51
2023-04-20T09:14:14.802Z,70.68
2023-04-20T09:16:50.695Z,68.58
2023-04-20T09:19:23.156Z,67.22
2023-04-20T09:21:52.355Z,67.29
2023-04-20T09:24:22.736Z,70.00
2023-04-20T09:26:50.520Z,69.71
2023-04-20T09:29:18.810Z,63.68
2023-04-20T09:31:46.667Z,68.68
2023-04-20T09:34:14.703Z,67.15
2023-04-20T09:36:43.795Z,64.98
2023-04-20T09:39:12.907Z,62.77
2023-04-20T09:41:43.153Z,66.40
2023-04-20T09:44:11.894Z,66.35
2023-04-20T09:46:40.602Z,68.00
2023-04-20T09:49:09.570Z,66.67
2023-04-20T09:51:38.513Z,67.31
2023-04-20T09:54:07.571Z,66.17
2023-04-20T09:56:36.240Z,65.24
2023-04-20T09:59:05.304Z,63.92
2023-04-20T10:01:34.835Z,64.35
2023-04-20T10:04:04.035Z,65.32
2023-04-20T10:06:34.334Z,67.19
2023-04-20T10:09:05.920Z,62.44
2023-04-20T10:11:49.103Z,63.95
2023-04-20T10:14:24.117Z,65.09
2023-04-20T10:17:01.017Z,61.66
2023-04-20T10:19:38.639Z,59.69
2023-04-20T10:22:07.174Z,64.01
2023-04-20T10:24:35.803Z,59.29
2023-04-20T10:27:04.200Z,58.94
2023-04-20T10:29:34.516Z,64.80
2023-04-20T10:32:04.095Z,61.44
2023-04-20T10:34:32.513Z,59.09
2023-04-20T10:37:10.312Z,59.65
2023-04-20T10:39:38.802Z,62.26
2023-04-20T10:42:06.536Z,59.46
2023-04-20T10:44:35.596Z,55.95
2023-04-20T10:47:03.366Z,57.92
2023-04-20T10:49:32.276Z,55.21
2023-04-20T10:52:00.107Z,55.53
2023-04-20T10:54:28.975Z,57.52
2023-04-20T10:56:57.118Z,60.82
2023-04-20T10:59:25.944Z,61.84
2023-04-20T11:01:55.759Z,60.15
2023-04-20T11:04:31.112Z,58.55
2023-04-20T11:07:05.969Z,57.26
2023-04-20T11:09:34.765Z,54.37
2023-04-20T11:12:04.304Z,55.38
2023-04-20T11:14:32.400Z,51.33
2023-04-20T11:17:01.878Z,50.56
2023-04-20T11:19:31.133Z,49.96
2023-04-20T11:21:59.227Z,50.78
2023-04-20T11:24:28.198Z,52.91
2023-04-20T11:26:56.792Z,51.93
2023-04-20T11:29:32.049Z,52.61
2023-04-20T11:32:02.668Z,53.47
2023-04-20T11:34:30.477Z,52.44
2023-04-20T11:36:59.564Z,54.84
2023-04-20T11:39:27.630Z,55.76
2023-04-20T11:41:56.587Z,54.47
2023-04-20T11:44:25.239Z,53.48
2023-04-20T11:46:54.428Z,50.00
2023-04-20T11:49:23.800Z,52.51
2023-04-20T11:51:52.166Z,50.55
2023-04-20T11:54:20.225Z,48.89
2023-04-20T11:56:47.991Z,49.98
2023-04-20T11:59:16.974Z,49.44
2023-04-20T12:01:44.947Z,48.60
2023-04-20T12:04:12.979Z,45.78
2023-04-20T12:06:42.441Z,46.10
2023-04-20T12:09:10.442Z,45.94
2023-04-20T12:11:38.237Z,44.17
2023-04-20T12:14:06.006Z,43.95
2023-04-20T12:16:33.823Z,41.95
2023-04-20T12:19:01.618Z,44.83
2023-04-20T12:21:29.372Z,44.84
2023-04-20T12:23:58.683Z,43.48
2023-04-20T12:26:36.917Z,43.87
2023-04-20T12:29:05.962Z,43.42
2023-04-20T12:31:33.744Z,44.28
2023-04-20T12:34:01.445Z,45.96
2023-04-20T12:36:29.323Z,47.88
2023-04-20T12:38:58.403Z,47.78
2023-04-20T12:41:26.081Z,49.09
2023-04-20T12:43:53.884Z,49.38
2023-04-20T12:46:21.615Z,48.24
2023-04-20T12:48:49.347Z,50.07
2023-04-20T12:51:17.129Z,49.60
2023-04-20T12:55:37.845Z,48.19
2023-04-20T12:58:06.101Z,48.23
2023-04-20T13:00:33.879Z,49.88
2023-04-20T13:03:01.956Z,48.63
2023-04-20T13:05:30.264Z,48.27
2023-04-20T13:07:58.026Z,48.47
2023-04-20T13:10:25.992Z,49.59
2023-04-20T13:12:55.998Z,49.19
2023-04-20T13:15:37.553Z,47.69
2023-04-20T13:18:07.026Z,47.88
2023-04-20T13:20:34.898Z,47.05
2023-04-20T13:23:03.834Z,46.03
2023-04-20T13:25:33.449Z,46.21
2023-04-20T13:28:03.354Z,45.39
2023-04-20T13:30:31.096Z,44.38
2023-04-20T13:32:58.880Z,43.29
2023-04-20T13:35:26.928Z,41.88
2023-04-20T13:37:54.751Z,41.90
2023-04-20T13:40:22.744Z,41.53
2023-04-20T13:42:50.537Z,40.43
2023-04-20T13:45:19.643Z,39.69
2023-04-20T13:47:47.522Z,40.87
2023-04-20T13:50:15.294Z,40.96
2023-04-20T13:52:43.047Z,41.28
2023-04-20T13:55:11.782Z,41.82
2023-04-20T13:57:39.572Z,43.56
2023-04-20T14:00:08.786Z,44.56
2023-04-20T14:02:37.873Z,45.21
2023-04-20T14:05:06.550Z,45.13
2023-04-20T14:07:34.405Z,43.68
2023-04-20T14:10:02.174Z,42.73
2023-04-20T14:12:29.952Z,44.86
2023-04-20T14:14:58.995Z,43.31
2023-04-20T14:17:27.199Z,44.08
2023-04-20T14:19:56.367Z,44.12
2023-04-20T14:22:24.070Z,43.17
2023-04-20T14:24:51.715Z,42.69
2023-04-20T14:27:19.457Z,42.40
2023-04-20T14:29:47.268Z,42.63
2023-04-20T14:32:15.003Z,41.26
2023-04-20T14:34:42.670Z,41.19
2023-04-20T14:37:11.790Z,40.10
2023-04-20T14:39:39.570Z,40.78
2023-04-20T14:42:07.717Z,39.27
2023-04-20T14:44:35.529Z,38.79
2023-04-20T14:47:03.375Z,38.37
2023-04-20T14:49:31.089Z,38.04
2023-04-20T14:51:58.808Z,37.90
2023-04-20T14:54:27.940Z,39.19
2023-04-20T14:56:55.858Z,38.77
2023-04-20T14:59:24.559Z,39.51
2023-04-20T15:02:01.756Z,39.18
2023-04-20T15:04:31.825Z,38.82
2023-04-20T15:06:59.735Z,40.94
2023-04-20T15:09:28.854Z,42.84
2023-04-20T15:11:56.924Z,41.25
2023-04-20T15:14:24.695Z,41.02
2023-04-20T15:16:53.385Z,42.55
2023-04-20T15:19:21.495Z,42.55
2023-04-20T15:21:49.268Z,42.32
2023-04-20T15:24:17.314Z,42.08
2023-04-20T15:26:46.538Z,40.86
2023-04-20T15:29:14.276Z,41.19
2023-04-20T15:31:45.389Z,42.43
2023-04-20T15:34:15.424Z,41.44
2023-04-20T15:36:43.642Z,40.20
2023-04-20T15:39:11.576Z,41.52
2023-04-20T15:41:39.429Z,41.49
2023-04-20T15:44:08.548Z,42.01
2023-04-20T15:46:37.121Z,42.36
2023-04-20T15:49:04.991Z,41.61
2023-04-20T15:51:32.713Z,42.21
2023-04-20T15:54:00.508Z,41.41
2023-04-20T15:56:28.209Z,40.22
2023-04-20T15:58:55.964Z,41.69
2023-04-20T16:01:25.151Z,43.98
2023-04-20T16:03:52.952Z,43.32
2023-04-20T16:06:20.949Z,44.21
2023-04-20T16:08:53.173Z,43.49
2023-04-20T16:11:21.806Z,42.91
2023-04-20T16:13:49.624Z,42.83
2023-04-20T16:16:17.449Z,41.62
2023-04-20T16:18:46.562Z,40.74
2023-04-20T16:21:15.320Z,41.02
2023-04-20T16:23:42.992Z,39.86
2023-04-20T16:26:10.778Z,40.53
2023-04-20T16:28:38.699Z,41.49
2023-04-20T16:31:06.731Z,40.25
2023-04-20T16:33:35.677Z,41.57
2023-04-20T16:36:05.151Z,40.96
2023-04-20T16:38:32.940Z,41.30
2023-04-20T16:41:00.654Z,41.55
2023-04-20T16:43:28.401Z,42.65
2023-04-20T16:45:56.148Z,43.81
2023-04-20T16:48:23.896Z,45.94
2023-04-20T16:50:51.861Z,46.32
2023-04-20T16:53:21.276Z,47.16
2023-04-20T16:55:48.987Z,47.96
2023-04-20T16:58:16.680Z,49.93
2023-04-20T17:00:44.402Z,49.51
2023-04-20T17:03:13.694Z,49.49
2023-04-20T17:05:42.310Z,48.50
2023-04-20T17:08:10.227Z,51.06
2023-04-20T17:10:39.416Z,55.89
2023-04-20T17:13:07.157Z,64.63
2023-04-20T17:15:34.951Z,68.15
2023-04-20T17:18:02.758Z,69.76
2023-04-20T17:20:30.622Z,71.84
2023-04-20T17:22:58.284Z,72.58
2023-04-20T17:25:26.050Z,74.34
2023-04-20T17:27:55.178Z,75.76
2023-04-20T17:30:22.860Z,74.63
2023-04-20T17:32:50.581Z,79.89
2023-04-20T17:35:18.325Z,78.33
2023-04-20T17:37:46.003Z,78.87
2023-04-20T17:40:13.906Z,76.77
2023-04-20T17:42:41.690Z,74.47
2023-04-20T17:45:11.703Z,71.46
2023-04-20T17:47:39.531Z,70.99
2023-04-20T17:50:08.695Z,73.11
2023-04-20T17:52:36.546Z,74.16
2023-04-20T17:55:04.601Z,74.75
2023-04-20T17:57:32.454Z,77.90
2023-04-20T18:00:00.202Z,77.38
2023-04-20T18:02:29.471Z,80.25
2023-04-20T18:04:59.663Z,80.38
2023-04-20T18:07:27.673Z,86.95
2023-04-20T18:09:55.550Z,89.78
2023-04-20T18:12:23.346Z,94.66
2023-04-20T18:14:51.044Z,95.15
2023-04-20T18:17:18.750Z,99.10
2023-04-20T18:19:48.147Z,98.21
2023-04-20T18:22:16.578Z,99.65
2023-04-20T18:24:44.373Z,99.98
2023-04-20T18:27:12.296Z,98.88
2023-04-20T18:29:39.949Z,96.34
2023-04-20T18:32:07.889Z,98.39
2023-04-20T18:34:36.759Z,100.00
2023-04-20T18:37:05.947Z,100.00
2023-04-20T18:39:33.597Z,100.00
2023-04-20T18:42:02.173Z,100.00
2023-04-20T18:44:30.251Z,100.00
2023-04-20T18:46:58.107Z,97.92
2023-04-20T18:49:25.891Z,100.00
2023-04-20T18:51:53.772Z,94.89
2023-04-20T18:54:22.847Z,96.77
2023-04-20T18:56:50.583Z,93.25
2023-04-20T18:59:18.591Z,95.39
2023-04-20T19:01:46.298Z,95.25
2023-04-20T19:04:14.194Z,97.75
2023-04-20T19:06:41.944Z,94.70
2023-04-20T19:09:09.666Z,94.38
2023-04-20T19:11:38.711Z,95.15
2023-04-20T19:14:06.524Z,93.33
2023-04-20T19:16:34.968Z,92.19
2023-04-20T19:19:03.821Z,93.90
2023-04-20T19:21:31.978Z,94.53
2023-04-20T19:23:59.784Z,94.51
2023-04-20T19:26:27.720Z,100.00
2023-04-20T19:28:58.184Z,99.15
2023-04-20T19:31:26.373Z,95.10
2023-04-20T19:33:55.928Z,98.59
2023-04-20T19:36:24.947Z,98.14
2023-04-20T19:38:52.693Z,96.36
2023-04-20T19:41:20.343Z,97.38
2023-04-20T19:43:48.012Z,96.12
2023-04-20T19:46:17.299Z,95.65
2023-04-20T19:48:45.359Z,94.45
2023-04-20T19:51:13.018Z,91.48
2023-04-20T19:53:40.956Z,94.44
2023-04-20T19:56:08.720Z,96.42
2023-04-20T19:58:36.545Z,96.61
2023-04-20T20:01:04.387Z,99.56
2023-04-20T20:03:33.618Z,94.29
2023-04-20T20:06:01.781Z,93.70
2023-04-20T20:08:29.925Z,94.26
2023-04-20T20:10:57.787Z,92.58
2023-04-20T20:13:26.348Z,94.61
2023-04-20T20:15:54.307Z,92.92
2023-04-20T20:18:22.175Z,90.89
2023-04-20T20:20:51.546Z,94.79
2023-04-20T20:23:19.315Z,93.99
2023-04-20T20:25:47.041Z,93.78
2023-04-20T20:28:15.848Z,91.70
2023-04-20T20:30:45.208Z,92.20
2023-04-20T20:33:13.188Z,93.06
2023-04-20T20:35:41.663Z,89.90
2023-04-20T20:38:10.900Z,89.00
2023-04-20T20:40:39.722Z,91.64
2023-04-20T20:43:07.487Z,90.17
2023-04-20T20:45:35.266Z,88.69
2023-04-20T20:48:03.069Z,88.68
2023-04-20T20:50:30.969Z,92.89
2023-04-20T20:52:58.664Z,92.89
2023-04-20T20:55:28.245Z,94.64
2023-04-20T20:57:55.949Z,91.76
2023-04-20T21:00:23.775Z,91.30
2023-04-20T21:02:52.438Z,94.06
2023-04-20T21:05:22.896Z,93.91
2023-04-20T21:07:50.816Z,94.21
2023-04-20T21:10:18.536Z,91.99
2023-04-20T21:12:47.639Z,95.67
2023-04-20T21:15:15.332Z,94.42
2023-04-20T21:17:43.097Z,91.20
2023-04-20T21:20:12.056Z,93.50
2023-04-20T21:22:40.123Z,96.48
2023-04-20T21:25:08.762Z,94.47
2023-04-20T21:27:36.539Z,90.25
2023-04-20T21:30:06.327Z,91.54
2023-04-20T21:32:33.996Z,92.21
2023-04-20T21:35:01.670Z,92.39
2023-04-20T21:37:29.376Z,96.82
2023-04-20T21:39:57.100Z,98.14
2023-04-20T21:42:24.840Z,100.00
2023-04-20T21:44:52.566Z,100.00
2023-04-20T21:47:21.644Z,100.00
2023-04-20T21:49:49.542Z,98.54
2023-04-20T21:52:17.288Z,98.88
2023-04-20T21:54:45.105Z,99.06
2023-04-20T21:57:13.219Z,99.26
2023-04-20T21:59:40.872Z,98.64
2023-04-20T22:02:08.617Z,98.91
2023-04-20T22:04:38.015Z,100.00
2023-04-20T22:07:05.760Z,100.00
2023-04-20T22:09:33.471Z,100.00
2023-04-20T22:12:02.041Z,100.00
2023-04-20T22:14:30.022Z,100.00
2023-04-20T22:16:57.766Z,100.00
2023-04-20T22:19:25.898Z,100.00
2023-04-20T22:21:55.172Z,100.00
2023-04-20T22:24:22.868Z,100.00
2023-04-20T22:26:50.536Z,100.00
2023-04-20T22:29:18.472Z,100.00
2023-04-20T22:31:46.399Z,100.00
2023-04-20T22:34:14.106Z,100.00
2023-04-20T22:36:41.859Z,100.00
2023-04-20T22:39:11.295Z,100.00
2023-04-20T22:41:39.000Z,100.00
2023-04-20T22:44:06.844Z,100.00
2023-04-20T22:46:34.652Z,100.00
2023-04-20T22:49:02.394Z,100.00
2023-04-20T22:51:30.054Z,100.00
2023-04-20T22:53:57.848Z,100.00
2023-04-20T22:56:29.109Z,100.00
2023-04-20T22:58:56.809Z,100.00
2023-04-20T23:01:24.571Z,100.00
2023-04-20T23:03:52.439Z,100.00
2023-04-20T23:06:22.100Z,100.00
2023-04-20T23:08:49.877Z,100.00
2023-04-20T23:11:17.598Z,100.00
2023-04-20T23:13:47.770Z,100.00
2023-04-20T23:16:15.607Z,100.00
2023-04-20T23:18:43.459Z,100.00
2023-04-20T23:21:11.217Z,100.00
2023-04-20T23:23:39.062Z,100.00
2023-04-20T23:26:06.785Z,100.00
2023-04-20T23:28:34.608Z,100.00
2023-04-20T23:31:03.745Z,100.00
2023-04-20T23:33:31.537Z,100.00
2023-04-20T23:35:59.593Z,100.00
2023-04-20T23:38:27.359Z,100.00
2023-04-20T23:40:55.074Z,100.00
2023-04-20T23:43:22.804Z,100.00
2023-04-20T23:45:50.703Z,100.00
2023-04-20T23:48:19.871Z,100.00
2023-04-20T23:50:49.560Z,100.00
2023-04-20T23:53:17.286Z,100.00
2023-04-20T23:55:48.417Z,100.00
2023-04-20T23:58:16.165Z,100.00
